createdAt,value
2023-02-02T00:00:29.751Z,94173.28
2023-02-02T00:02:56.348Z,94167.78
2023-02-02T00:05:23.208Z,94171.78
2023-02-02T00:07:49.951Z,94165.25
2023-02-02T00:10:16.893Z,94165.03
2023-02-02T00:12:43.500Z,94157.22
2023-02-02T00:15:11.020Z,94159.31
2023-02-02T00:17:37.717Z,94168.06
2023-02-02T00:20:04.567Z,94165.41
2023-02-02T00:22:31.152Z,94152.22
2023-02-02T00:24:57.893Z,94161.44
2023-02-02T00:27:24.538Z,94164.69
2023-02-02T00:29:53.781Z,94168.91
2023-02-02T00:32:20.803Z,94172.94
2023-02-02T00:34:47.470Z,94168.09
2023-02-02T00:37:14.136Z,94168.28
2023-02-02T00:39:40.757Z,94175.75
2023-02-02T00:42:10.990Z,94169.66
2023-02-02T00:44:56.160Z,94175.28
2023-02-02T00:47:23.110Z,94176.41
2023-02-02T00:49:49.834Z,94184.66
2023-02-02T00:52:16.465Z,94182.00
2023-02-02T00:54:43.096Z,94168.41
2023-02-02T00:57:13.745Z,94170.00
2023-02-02T00:59:41.721Z,94171.03
2023-02-02T01:02:11.009Z,94164.38
2023-02-02T01:04:38.073Z,94162.34
2023-02-02T01:07:05.195Z,94159.72
2023-02-02T01:09:31.842Z,94162.53
2023-02-02T01:11:58.537Z,94148.34
2023-02-02T01:14:25.350Z,94143.31
2023-02-02T01:16:51.945Z,94137.09
2023-02-02T01:19:18.617Z,94140.06
2023-02-02T01:21:45.311Z,94135.19
2023-02-02T01:24:12.118Z,94131.31
2023-02-02T01:26:38.769Z,94120.88
2023-02-02T01:29:05.442Z,94131.13
2023-02-02T01:31:32.164Z,94123.31
2023-02-02T01:33:58.827Z,94129.44
2023-02-02T01:36:25.511Z,94128.38
2023-02-02T01:38:52.268Z,94135.22
2023-02-02T01:41:24.137Z,94129.31
2023-02-02T01:43:54.920Z,94131.78
2023-02-02T01:46:36.456Z,94119.00
2023-02-02T01:49:10.133Z,94117.63
2023-02-02T01:51:40.818Z,94107.34
2023-02-02T01:54:11.884Z,94104.69
2023-02-02T01:56:45.848Z,94101.22
2023-02-02T01:59:15.020Z,94117.59
2023-02-02T02:01:42.603Z,94106.06
2023-02-02T02:04:09.315Z,94092.84
2023-02-02T02:06:36.044Z,94097.50
2023-02-02T02:09:04.935Z,94105.13
2023-02-02T02:11:33.969Z,94105.47
2023-02-02T02:14:24.301Z,94100.47
2023-02-02T02:17:12.045Z,94114.34
2023-02-02T02:20:18.948Z,94105.56
2023-02-02T02:23:19.321Z,94110.44
2023-02-02T02:26:23.291Z,94104.06
2023-02-02T02:28:57.011Z,94104.03
2023-02-02T02:31:35.698Z,94107.28
2023-02-02T02:34:24.647Z,94100.72
2023-02-02T02:36:58.951Z,94109.94
2023-02-02T02:39:41.436Z,94098.44
2023-02-02T02:42:12.351Z,94100.72
2023-02-02T02:44:39.077Z,94102.50
2023-02-02T02:47:06.159Z,94101.53
2023-02-02T02:49:32.909Z,94095.94
2023-02-02T02:51:59.510Z,94098.44
2023-02-02T02:54:35.977Z,94112.28
2023-02-02T02:57:34.803Z,94101.66
2023-02-02T03:00:15.331Z,94104.03
2023-02-02T03:03:06.314Z,94107.00
2023-02-02T03:05:38.658Z,94097.78
2023-02-02T03:08:20.426Z,94094.38
2023-02-02T03:10:47.712Z,94090.06
2023-02-02T03:13:15.679Z,94088.94
2023-02-02T03:15:44.278Z,94091.41
2023-02-02T03:18:13.895Z,94098.91
2023-02-02T03:20:40.598Z,94089.59
2023-02-02T03:23:07.249Z,94079.88
2023-02-02T03:25:34.115Z,94079.88
2023-02-02T03:28:01.070Z,94086.78
2023-02-02T03:30:28.008Z,94083.88
2023-02-02T03:32:54.795Z,94076.47
2023-02-02T03:35:21.848Z,94087.34
2023-02-02T03:37:48.610Z,94077.59
2023-02-02T03:40:15.621Z,94081.53
2023-02-02T03:42:42.237Z,94071.25
2023-02-02T03:45:09.471Z,94086.59
2023-02-02T03:47:36.188Z,94099.13
2023-02-02T03:50:03.016Z,94089.69
2023-02-02T03:52:29.597Z,94085.34
2023-02-02T03:54:56.182Z,94087.59
2023-02-02T03:57:22.802Z,94090.81
2023-02-02T03:59:49.566Z,94093.97
2023-02-02T04:02:16.175Z,94094.41
2023-02-02T04:04:42.892Z,94081.78
2023-02-02T04:07:09.574Z,94092.97
2023-02-02T04:09:36.265Z,94106.25
2023-02-02T04:12:02.910Z,94107.28
2023-02-02T04:14:29.541Z,94111.84
2023-02-02T04:16:56.198Z,94113.97
2023-02-02T04:19:22.818Z,94121.50
2023-02-02T04:21:49.461Z,94116.91
2023-02-02T04:24:16.186Z,94127.09
2023-02-02T04:26:43.204Z,94115.72
2023-02-02T04:29:09.882Z,94121.84
2023-02-02T04:31:36.509Z,94129.13
2023-02-02T04:34:03.559Z,94132.63
2023-02-02T04:36:30.393Z,94123.81
2023-02-02T04:38:57.262Z,94119.31
2023-02-02T04:41:24.179Z,94125.63
2023-02-02T04:43:50.816Z,94129.53
2023-02-02T04:46:17.592Z,94138.41
2023-02-02T04:48:44.281Z,94133.41
2023-02-02T04:51:14.095Z,94137.88
2023-02-02T04:53:42.261Z,94132.47
2023-02-02T04:56:19.156Z,94123.34
2023-02-02T04:58:46.320Z,94128.28
2023-02-02T05:01:18.936Z,94125.53
2023-02-02T05:03:46.597Z,94129.53
2023-02-02T05:06:15.885Z,94129.13
2023-02-02T05:08:43.545Z,94138.00
2023-02-02T05:11:11.753Z,94135.09
2023-02-02T05:13:38.580Z,94128.72
2023-02-02T05:16:05.833Z,94134.69
2023-02-02T05:18:32.804Z,94141.16
2023-02-02T05:21:04.530Z,94133.69
2023-02-02T05:23:31.642Z,94110.63
2023-02-02T05:25:58.327Z,94098.09
2023-02-02T05:28:25.200Z,94112.25
2023-02-02T05:30:52.465Z,94105.09
2023-02-02T05:33:19.846Z,94121.09
2023-02-02T05:35:49.668Z,94122.72
2023-02-02T05:38:16.909Z,94131.75
2023-02-02T05:40:43.626Z,94128.72
2023-02-02T05:43:10.256Z,94124.56
2023-02-02T05:45:36.899Z,94128.13
2023-02-02T05:48:03.622Z,94132.56
2023-02-02T05:50:30.287Z,94125.16
2023-02-02T05:52:57.660Z,94128.19
2023-02-02T05:55:24.790Z,94140.66
2023-02-02T05:57:51.642Z,94119.63
2023-02-02T06:00:18.722Z,94113.84
2023-02-02T06:02:45.422Z,94114.03
2023-02-02T06:05:12.190Z,94121.66
2023-02-02T06:07:38.967Z,94133.78
2023-02-02T06:10:05.978Z,94131.03
2023-02-02T06:12:32.592Z,94121.81
2023-02-02T06:14:59.257Z,94130.84
2023-02-02T06:17:25.891Z,94131.44
2023-02-02T06:19:52.504Z,94134.28
2023-02-02T06:22:19.103Z,94135.53
2023-02-02T06:24:45.666Z,94145.81
2023-02-02T06:27:12.295Z,94153.44
2023-02-02T06:29:38.939Z,94153.44
2023-02-02T06:32:05.589Z,94144.25
2023-02-02T06:34:32.234Z,94156.53
2023-02-02T06:36:58.958Z,94159.78
2023-02-02T06:39:25.563Z,94168.69
2023-02-02T06:41:52.179Z,94183.97
2023-02-02T06:44:20.962Z,94160.56
2023-02-02T06:46:47.769Z,94162.66
2023-02-02T06:49:14.457Z,94162.66
2023-02-02T06:51:41.437Z,94161.13
2023-02-02T06:54:08.053Z,94164.97
2023-02-02T06:56:34.632Z,94173.84
2023-02-02T06:59:02.174Z,94176.97
2023-02-02T07:01:28.825Z,94192.00
2023-02-02T07:03:55.465Z,94188.38
2023-02-02T07:06:24.677Z,94199.78
2023-02-02T07:09:00.972Z,94195.69
2023-02-02T07:11:38.552Z,94178.13
2023-02-02T07:14:08.566Z,94183.72
2023-02-02T07:16:35.557Z,94197.41
2023-02-02T07:19:03.894Z,94196.03
2023-02-02T07:21:35.650Z,94192.28
2023-02-02T07:24:03.973Z,94192.28
2023-02-02T07:26:30.756Z,94201.03
2023-02-02T07:28:57.544Z,94196.97
2023-02-02T07:31:26.629Z,94201.03
2023-02-02T07:33:54.876Z,94196.78
2023-02-02T07:36:23.898Z,94202.59
2023-02-02T07:38:54.353Z,94197.88
2023-02-02T07:41:21.474Z,94199.94
2023-02-02T07:43:48.820Z,94192.72
2023-02-02T07:46:17.628Z,94196.66
2023-02-02T07:48:44.450Z,94182.38
2023-02-02T07:51:14.826Z,94176.00
2023-02-02T07:53:49.566Z,94167.25
2023-02-02T07:56:17.471Z,94155.22
2023-02-02T07:58:44.917Z,94159.94
2023-02-02T08:01:14.572Z,94155.50
2023-02-02T08:03:42.979Z,94151.41
2023-02-02T08:06:21.537Z,94147.50
2023-02-02T08:08:49.058Z,94160.38
2023-02-02T08:11:18.017Z,94154.59
2023-02-02T08:13:45.016Z,94148.03
2023-02-02T08:16:13.093Z,94146.69
2023-02-02T08:18:40.082Z,94143.34
2023-02-02T08:21:11.229Z,94128.91
2023-02-02T08:23:39.566Z,94129.47
2023-02-02T08:26:24.104Z,94137.19
2023-02-02T08:29:09.179Z,94122.91
2023-02-02T08:31:38.511Z,94135.06
2023-02-02T08:34:05.680Z,94121.34
2023-02-02T08:36:33.094Z,94119.59
2023-02-02T08:39:17.829Z,94131.34
2023-02-02T08:41:45.428Z,94120.94
2023-02-02T08:44:14.938Z,94125.28
2023-02-02T08:46:42.416Z,94115.53
2023-02-02T08:49:13.326Z,94115.53
2023-02-02T08:51:40.217Z,94090.03
2023-02-02T08:54:06.853Z,94095.00
2023-02-02T08:56:33.458Z,94086.88
2023-02-02T08:59:00.287Z,94091.81
2023-02-02T09:01:29.886Z,94087.22
2023-02-02T09:04:01.179Z,94095.31
2023-02-02T09:06:31.630Z,94091.19
2023-02-02T09:08:58.454Z,94093.63
2023-02-02T09:11:25.320Z,94090.38
2023-02-02T09:13:55.702Z,94086.09
2023-02-02T09:16:23.578Z,94083.50
2023-02-02T09:18:50.624Z,94086.41
2023-02-02T09:21:19.275Z,94089.53
2023-02-02T09:23:47.484Z,94089.84
2023-02-02T09:26:15.609Z,94090.78
2023-02-02T09:28:47.651Z,94087.34
2023-02-02T09:31:15.020Z,94084.63
2023-02-02T09:33:42.450Z,94077.53
2023-02-02T09:36:14.928Z,94073.09
2023-02-02T09:38:42.682Z,94080.31
2023-02-02T09:41:21.252Z,94066.75
2023-02-02T09:43:58.616Z,94080.66
2023-02-02T09:46:48.037Z,94079.34
2023-02-02T09:49:21.319Z,94076.09
2023-02-02T09:51:56.794Z,94069.88
2023-02-02T09:54:33.421Z,94059.94
2023-02-02T09:57:03.857Z,94058.41
2023-02-02T09:59:36.146Z,94060.00
2023-02-02T10:02:16.903Z,94063.97
2023-02-02T10:04:50.261Z,94066.59
2023-02-02T10:07:21.369Z,94053.72
2023-02-02T10:09:52.949Z,94059.47
2023-02-02T10:12:51.707Z,94049.50
2023-02-02T10:15:25.050Z,94050.59
2023-02-02T10:18:11.636Z,94044.44
2023-02-02T10:20:54.298Z,94035.88
2023-02-02T10:23:36.897Z,94053.91
2023-02-02T10:26:28.910Z,94031.13
2023-02-02T10:29:21.725Z,94036.50
2023-02-02T10:32:13.779Z,94051.25
2023-02-02T10:35:06.801Z,94044.97
2023-02-02T10:37:49.094Z,94033.75
2023-02-02T10:40:58.378Z,94017.84
2023-02-02T10:43:46.007Z,94017.72
2023-02-02T10:46:18.934Z,94004.56
2023-02-02T10:48:47.214Z,93985.78
2023-02-02T10:51:29.890Z,93973.28
2023-02-02T10:54:05.275Z,93983.84
2023-02-02T10:56:40.510Z,93970.38
2023-02-02T10:59:16.167Z,93956.75
2023-02-02T11:01:42.897Z,93958.78
2023-02-02T11:04:29.419Z,93968.66
2023-02-02T11:06:56.596Z,93957.31
2023-02-02T11:09:28.565Z,93969.06
2023-02-02T11:12:01.392Z,93952.41
2023-02-02T11:14:45.486Z,93957.97
2023-02-02T11:17:24.463Z,93947.75
2023-02-02T11:19:51.868Z,93948.28
2023-02-02T11:22:53.595Z,93946.44
2023-02-02T11:25:34.069Z,93954.97
2023-02-02T11:28:24.223Z,93938.69
2023-02-02T11:30:53.326Z,93925.66
2023-02-02T11:33:34.460Z,93931.72
2023-02-02T11:36:03.743Z,93919.88
2023-02-02T11:38:30.978Z,93913.53
2023-02-02T11:41:13.161Z,93913.00
2023-02-02T11:43:52.357Z,93913.66
2023-02-02T11:46:21.958Z,93920.88
2023-02-02T11:49:03.580Z,93911.31
2023-02-02T11:51:31.435Z,93917.44
2023-02-02T11:54:00.855Z,93926.53
2023-02-02T11:56:27.817Z,93930.28
2023-02-02T11:58:56.624Z,93913.31
2023-02-02T12:01:27.625Z,93908.28
2023-02-02T12:04:02.843Z,93904.94
2023-02-02T12:06:36.869Z,93903.56
2023-02-02T12:09:12.847Z,93905.72
2023-02-02T12:11:57.732Z,93910.97
2023-02-02T12:14:39.732Z,93915.88
2023-02-02T12:17:26.562Z,93909.56
2023-02-02T12:20:28.272Z,93912.66
2023-02-02T12:23:03.855Z,93908.19
2023-02-02T12:25:42.369Z,93911.22
2023-02-02T12:28:40.129Z,93915.47
2023-02-02T12:31:44.369Z,93920.28
2023-02-02T12:34:23.493Z,93924.13
2023-02-02T12:36:52.785Z,93928.00
2023-02-02T12:39:37.495Z,93923.91
2023-02-02T12:42:16.031Z,93930.28
2023-02-02T12:45:03.826Z,93935.63
2023-02-02T12:47:41.370Z,93922.13
2023-02-02T12:50:35.859Z,93925.69
2023-02-02T12:53:08.883Z,93920.38
2023-02-02T12:56:29.448Z,93932.56
2023-02-02T12:59:49.684Z,93923.06
2023-02-02T13:02:54.098Z,93919.91
2023-02-02T13:05:36.725Z,93932.16
2023-02-02T13:08:15.561Z,93922.38
2023-02-02T13:10:49.237Z,93909.88
2023-02-02T13:13:24.643Z,93927.19
2023-02-02T13:16:13.976Z,93931.19
2023-02-02T13:18:48.384Z,93923.19
2023-02-02T13:21:19.469Z,93919.66
2023-02-02T13:23:50.489Z,93919.63
2023-02-02T13:26:23.080Z,93912.28
2023-02-02T13:28:55.213Z,93920.72
2023-02-02T13:31:35.643Z,93916.09
2023-02-02T13:34:21.733Z,93918.06
2023-02-02T13:36:57.578Z,93918.19
2023-02-02T13:39:34.109Z,93918.94
2023-02-02T13:42:03.026Z,93917.41
2023-02-02T13:44:40.292Z,93920.63
2023-02-02T13:47:17.045Z,93916.31
2023-02-02T13:49:53.903Z,93933.25
2023-02-02T13:53:06.437Z,93909.50
2023-02-02T13:56:19.801Z,93898.34
2023-02-02T13:59:03.761Z,93908.56
2023-02-02T14:01:32.157Z,93903.00
2023-02-02T14:04:00.565Z,93904.53
2023-02-02T14:06:28.698Z,93920.38
2023-02-02T14:09:04.945Z,93917.16
2023-02-02T14:11:35.883Z,93899.13
2023-02-02T14:14:34.556Z,93902.81
2023-02-02T14:17:04.495Z,93892.56
2023-02-02T14:19:31.058Z,93894.97
2023-02-02T14:22:09.354Z,93908.50
2023-02-02T14:24:35.928Z,93917.78
2023-02-02T14:27:24.251Z,93908.78
2023-02-02T14:29:53.774Z,93913.69
2023-02-02T14:32:42.320Z,93924.53
2023-02-02T14:35:08.853Z,93920.91
2023-02-02T14:37:46.825Z,93924.69
2023-02-02T14:40:28.063Z,93943.59
2023-02-02T14:43:22.252Z,93975.84
2023-02-02T14:46:10.594Z,94013.53
2023-02-02T14:48:39.196Z,94050.88
2023-02-02T14:51:13.303Z,94042.38
2023-02-02T14:53:52.630Z,94072.84
2023-02-02T14:56:21.034Z,94073.97
2023-02-02T14:59:02.339Z,94066.19
2023-02-02T15:01:34.583Z,94096.91
2023-02-02T15:04:01.177Z,94102.72
2023-02-02T15:06:37.695Z,94134.56
2023-02-02T15:09:23.389Z,94134.09
2023-02-02T15:12:01.156Z,94138.53
2023-02-02T15:14:37.020Z,94145.44
2023-02-02T15:17:44.962Z,94156.75
2023-02-02T15:20:23.674Z,94175.22
2023-02-02T15:23:04.680Z,94172.72
2023-02-02T15:25:40.168Z,94192.19
2023-02-02T15:28:28.495Z,94189.63
2023-02-02T15:31:01.135Z,94183.38
2023-02-02T15:33:36.779Z,94198.84
2023-02-02T15:36:13.691Z,94240.84
2023-02-02T15:38:41.954Z,94194.00
2023-02-02T15:41:20.597Z,94196.13
2023-02-02T15:43:47.397Z,94201.66
2023-02-02T15:46:24.321Z,94198.09
2023-02-02T15:49:33.310Z,94198.41
2023-02-02T15:52:04.035Z,94190.44
2023-02-02T15:54:34.788Z,94191.22
2023-02-02T15:57:03.363Z,94205.13
2023-02-02T15:59:40.840Z,94219.38
2023-02-02T16:02:07.428Z,94212.69
2023-02-02T16:04:37.584Z,94217.00
2023-02-02T16:07:16.364Z,94203.19
2023-02-02T16:09:43.190Z,94201.88
2023-02-02T16:12:19.169Z,94206.25
2023-02-02T16:14:48.397Z,94219.00
2023-02-02T16:17:29.797Z,94250.22
2023-02-02T16:19:59.455Z,94216.13
2023-02-02T16:22:26.501Z,94227.75
2023-02-02T16:24:55.845Z,94232.53
2023-02-02T16:27:26.772Z,94229.25
2023-02-02T16:29:56.495Z,94224.56
2023-02-02T16:32:38.897Z,94208.47
2023-02-02T16:35:27.422Z,94215.91
2023-02-02T16:38:31.700Z,94224.28
2023-02-02T16:41:29.171Z,94221.25
2023-02-02T16:43:56.366Z,94217.00
2023-02-02T16:46:46.050Z,94222.22
2023-02-02T16:49:23.268Z,94226.06
2023-02-02T16:52:18.872Z,94225.97
2023-02-02T16:54:54.722Z,94225.81
2023-02-02T16:57:27.678Z,94235.06
2023-02-02T16:59:57.620Z,94242.03
2023-02-02T17:02:35.656Z,94251.84
2023-02-02T17:05:15.759Z,94239.44
2023-02-02T17:07:49.312Z,94241.31
2023-02-02T17:10:18.682Z,94253.66
2023-02-02T17:12:46.056Z,94258.25
2023-02-02T17:15:18.527Z,94263.69
2023-02-02T17:17:49.522Z,94280.75
2023-02-02T17:20:17.922Z,94280.88
2023-02-02T17:22:49.743Z,94280.38
2023-02-02T17:25:27.609Z,94269.81
2023-02-02T17:27:56.124Z,94255.63
2023-02-02T17:30:23.098Z,94252.88
2023-02-02T17:32:49.782Z,94255.91
2023-02-02T17:35:19.429Z,94253.03
2023-02-02T17:37:46.123Z,94266.03
2023-02-02T17:40:14.658Z,94256.22
2023-02-02T17:42:43.030Z,94269.25
2023-02-02T17:45:23.136Z,94271.19
2023-02-02T17:47:52.863Z,94277.53
2023-02-02T17:50:20.799Z,94275.31
2023-02-02T17:52:48.780Z,94281.59
2023-02-02T17:55:22.226Z,94271.22
2023-02-02T17:57:52.864Z,94279.88
2023-02-02T18:00:23.207Z,94269.78
2023-02-02T18:02:55.261Z,94260.09
2023-02-02T18:05:23.872Z,94274.31
2023-02-02T18:07:50.779Z,94272.69
2023-02-02T18:10:19.308Z,94281.16
2023-02-02T18:12:46.050Z,94283.09
2023-02-02T18:15:14.795Z,94276.59
2023-02-02T18:17:42.338Z,94271.44
2023-02-02T18:20:13.262Z,94274.00
2023-02-02T18:22:39.859Z,94262.72
2023-02-02T18:25:06.870Z,94279.41
2023-02-02T18:27:33.465Z,94268.84
2023-02-02T18:30:00.052Z,94271.09
2023-02-02T18:32:26.777Z,94283.03
2023-02-02T18:34:55.882Z,94292.28
2023-02-02T18:37:24.066Z,94286.31
2023-02-02T18:39:50.886Z,94292.06
2023-02-02T18:42:17.577Z,94280.56
2023-02-02T18:44:45.000Z,94282.25
2023-02-02T18:47:11.638Z,94277.97
2023-02-02T18:49:38.417Z,94276.03
2023-02-02T18:52:05.236Z,94271.78
2023-02-02T18:54:33.914Z,94286.63
2023-02-02T18:57:00.622Z,94284.75
2023-02-02T18:59:28.545Z,94293.56
2023-02-02T19:01:55.746Z,94284.84
2023-02-02T19:04:22.404Z,94292.00
2023-02-02T19:07:07.749Z,94287.47
2023-02-02T19:09:34.836Z,94297.09
2023-02-02T19:12:02.944Z,94292.25
2023-02-02T19:14:36.846Z,94301.22
2023-02-02T19:17:21.052Z,94291.50
2023-02-02T19:19:48.710Z,94294.00
2023-02-02T19:22:22.322Z,94282.81
2023-02-02T19:24:49.522Z,94294.44
2023-02-02T19:27:21.923Z,94294.78
2023-02-02T19:29:51.138Z,94309.47
2023-02-02T19:32:23.143Z,94314.09
2023-02-02T19:34:52.584Z,94304.97
2023-02-02T19:37:30.366Z,94306.81
2023-02-02T19:40:02.744Z,94305.56
2023-02-02T19:42:29.473Z,94311.53
2023-02-02T19:44:56.757Z,94309.59
2023-02-02T19:47:32.155Z,94308.91
2023-02-02T19:50:11.965Z,94313.00
2023-02-02T19:52:39.192Z,94311.31
2023-02-02T19:55:21.112Z,94303.28
2023-02-02T19:57:47.768Z,94306.69
2023-02-02T20:00:24.523Z,94313.59
2023-02-02T20:03:05.240Z,94312.31
2023-02-02T20:05:39.029Z,94313.19
2023-02-02T20:08:30.080Z,94316.66
2023-02-02T20:11:01.820Z,94311.22
2023-02-02T20:13:39.097Z,94300.28
2023-02-02T20:16:06.493Z,94299.53
2023-02-02T20:18:41.954Z,94303.91
2023-02-02T20:21:20.056Z,94310.25
2023-02-02T20:23:47.030Z,94296.44
2023-02-02T20:26:35.753Z,94304.47
2023-02-02T20:29:18.049Z,94298.00
2023-02-02T20:31:46.649Z,94295.00
2023-02-02T20:34:26.953Z,94295.06
2023-02-02T20:36:59.239Z,94292.50
2023-02-02T20:39:36.180Z,94289.91
2023-02-02T20:42:04.013Z,94288.16
2023-02-02T20:44:31.934Z,94295.31
2023-02-02T20:47:00.358Z,94294.25
2023-02-02T20:49:31.710Z,94292.84
2023-02-02T20:52:00.558Z,94287.28
2023-02-02T20:54:27.906Z,94296.97
2023-02-02T20:56:54.794Z,94291.13
2023-02-02T20:59:21.928Z,94304.00
2023-02-02T21:01:50.141Z,94299.31
2023-02-02T21:04:17.849Z,94298.31
2023-02-02T21:06:44.594Z,94298.25
2023-02-02T21:09:11.682Z,94300.91
2023-02-02T21:11:38.963Z,94293.34
2023-02-02T21:14:06.146Z,94301.81
2023-02-02T21:16:33.264Z,94301.28
2023-02-02T21:18:59.973Z,94288.69
2023-02-02T21:21:26.663Z,94289.25
2023-02-02T21:23:53.639Z,94286.94
2023-02-02T21:26:23.365Z,94279.06
2023-02-02T21:28:50.123Z,94278.25
2023-02-02T21:31:18.069Z,94280.16
2023-02-02T21:33:46.749Z,94285.47
2023-02-02T21:36:33.476Z,94281.75
2023-02-02T21:39:05.637Z,94284.13
2023-02-02T21:41:33.563Z,94293.28
2023-02-02T21:44:00.263Z,94294.16
2023-02-02T21:46:36.208Z,94296.13
2023-02-02T21:49:03.308Z,94298.16
2023-02-02T21:51:35.199Z,94299.00
2023-02-02T21:54:16.036Z,94304.66
2023-02-02T21:56:42.668Z,94302.72
2023-02-02T21:59:21.080Z,94308.19
2023-02-02T22:01:49.907Z,94310.56
2023-02-02T22:04:19.110Z,94316.09
2023-02-02T22:06:48.445Z,94324.75
2023-02-02T22:09:20.951Z,94308.94
2023-02-02T22:12:00.777Z,94305.09
2023-02-02T22:14:35.903Z,94302.88
2023-02-02T22:17:18.707Z,94291.66
2023-02-02T22:19:45.578Z,94303.09
2023-02-02T22:22:21.752Z,94315.53
2023-02-02T22:24:58.534Z,94321.16
2023-02-02T22:27:36.404Z,94325.47
2023-02-02T22:30:26.147Z,94326.91
2023-02-02T22:32:53.701Z,94328.22
2023-02-02T22:35:20.725Z,94317.44
2023-02-02T22:37:47.748Z,94317.25
2023-02-02T22:40:16.410Z,94310.50
2023-02-02T22:42:43.841Z,94317.63
2023-02-02T22:45:10.685Z,94321.97
2023-02-02T22:47:37.442Z,94316.72
2023-02-02T22:50:04.287Z,94305.84
2023-02-02T22:52:30.873Z,94302.94
2023-02-02T22:54:57.473Z,94305.09
2023-02-02T22:57:24.087Z,94309.34
2023-02-02T22:59:50.659Z,94314.41
2023-02-02T23:02:17.284Z,94302.34
2023-02-02T23:04:43.935Z,94298.81
2023-02-02T23:07:10.537Z,94299.72
2023-02-02T23:09:37.161Z,94313.56
2023-02-02T23:12:04.010Z,94316.91
2023-02-02T23:14:30.592Z,94325.75
2023-02-02T23:16:57.254Z,94318.31
2023-02-02T23:19:23.813Z,94318.31
2023-02-02T23:21:50.490Z,94329.97
2023-02-02T23:24:17.096Z,94323.09
2023-02-02T23:26:43.748Z,94313.63
2023-02-02T23:29:10.349Z,94316.63
2023-02-02T23:31:36.994Z,94327.25
2023-02-02T23:34:03.661Z,94326.25
2023-02-02T23:36:30.270Z,94328.91
2023-02-02T23:38:56.891Z,94325.50
2023-02-02T23:41:23.521Z,94332.69
2023-02-02T23:43:50.383Z,94325.38
2023-02-02T23:46:17.904Z,94333.44
2023-02-02T23:48:45.278Z,94326.00
2023-02-02T23:51:12.692Z,94349.75
2023-02-02T23:53:39.756Z,94338.59
2023-02-02T23:56:06.575Z,94345.66
2023-02-02T23:58:33.269Z,94341.63
